createdAt,value
2022-10-31T10:33:26.406Z,4.60
2022-10-31T10:36:07.745Z,3.85
2022-10-31T10:38:40.425Z,4.40
2022-10-31T10:41:15.422Z,4.10
2022-10-31T10:43:42.578Z,3.92
2022-10-31T10:46:48.957Z,3.72
2022-10-31T10:49:33.197Z,4.38
2022-10-31T10:52:20.138Z,4.30
2022-10-31T10:55:07.333Z,3.50
2022-10-31T10:57:37.430Z,4.45
2022-10-31T11:00:34.813Z,4.18
2022-10-31T11:03:02.250Z,4.70
2022-10-31T11:05:37.176Z,4.50
2022-10-31T11:08:05.917Z,4.20
2022-10-31T11:10:34.532Z,4.03
2022-10-31T11:13:28.467Z,4.38
2022-10-31T11:16:02.067Z,4.10
2022-10-31T11:18:32.949Z,4.70
2022-10-31T11:21:03.840Z,4.53
2022-10-31T11:23:31.531Z,5.75
2022-10-31T11:26:07.314Z,5.70
2022-10-31T11:28:37.963Z,4.68
2022-10-31T11:31:13.251Z,4.88
2022-10-31T11:33:49.469Z,5.40
2022-10-31T11:36:33.589Z,4.97
2022-10-31T11:39:02.258Z,4.47
2022-10-31T11:41:33.575Z,5.35
2022-10-31T11:47:02.795Z,5.45
2022-10-31T11:49:36.062Z,5.63
2022-10-31T11:52:15.325Z,5.15
2022-10-31T11:55:14.903Z,5.70
2022-10-31T11:57:46.366Z,4.15
2022-10-31T12:00:42.346Z,3.88
2022-10-31T12:03:18.413Z,4.53
2022-10-31T12:05:48.927Z,4.20
2022-10-31T12:08:15.932Z,5.30
2022-10-31T12:11:11.545Z,5.80
2022-10-31T12:14:07.897Z,4.65
2022-10-31T12:16:59.366Z,4.18
2022-10-31T12:19:33.575Z,5.43
2022-10-31T12:22:10.484Z,4.22
2022-10-31T12:24:59.005Z,6.78
2022-10-31T12:27:53.725Z,13.15
2022-10-31T12:30:31.849Z,13.23
2022-10-31T12:33:12.863Z,12.23
2022-10-31T12:36:05.021Z,11.13
2022-10-31T12:38:35.269Z,15.73
2022-10-31T12:41:15.971Z,12.48
2022-10-31T12:44:16.965Z,10.97
2022-10-31T12:47:13.693Z,9.20
2022-10-31T12:50:05.332Z,9.00
2022-10-31T12:53:14.406Z,10.27
2022-10-31T12:56:03.147Z,6.03
2022-10-31T12:58:39.976Z,4.93
2022-10-31T13:01:39.625Z,4.82
2022-10-31T13:04:16.685Z,6.00
2022-10-31T13:06:54.553Z,4.95
2022-10-31T13:09:29.833Z,4.60
2022-10-31T13:12:06.685Z,3.80
2022-10-31T13:14:49.332Z,4.60
2022-10-31T13:17:36.822Z,4.97
2022-10-31T13:20:29.708Z,4.97
2022-10-31T13:23:49.106Z,4.40
2022-10-31T13:26:26.007Z,4.43
2022-10-31T13:29:17.286Z,4.93
2022-10-31T13:31:49.816Z,4.65
2022-10-31T13:34:42.020Z,4.93
2022-10-31T13:37:26.545Z,4.55
2022-10-31T13:40:23.000Z,4.82
2022-10-31T13:43:23.398Z,5.25
2022-10-31T13:45:55.487Z,4.40
2022-10-31T13:48:28.658Z,5.05
2022-10-31T13:51:01.251Z,5.45
2022-10-31T13:53:53.333Z,5.35
2022-10-31T13:56:27.028Z,8.23
2022-10-31T13:59:00.830Z,8.27
2022-10-31T14:01:30.066Z,8.70
2022-10-31T14:04:19.324Z,8.07
2022-10-31T14:06:58.378Z,8.60
2022-10-31T14:09:35.031Z,14.05
2022-10-31T14:12:23.636Z,13.23
2022-10-31T14:14:55.703Z,14.20
2022-10-31T14:17:26.481Z,16.73
2022-10-31T14:20:23.120Z,13.80
2022-10-31T14:22:50.486Z,13.52
2022-10-31T14:25:36.668Z,14.55
2022-10-31T14:28:28.241Z,14.60
2022-10-31T14:30:58.813Z,7.60
2022-10-31T14:33:29.122Z,5.57
2022-10-31T14:36:14.817Z,5.90
2022-10-31T14:39:08.806Z,5.30
2022-10-31T14:41:46.492Z,6.25
2022-10-31T14:44:22.739Z,9.05
2022-10-31T14:46:57.318Z,8.15
2022-10-31T14:50:11.974Z,6.20
2022-10-31T14:52:40.300Z,5.13
2022-10-31T14:55:12.934Z,4.15
2022-10-31T14:57:50.019Z,4.05
2022-10-31T15:00:22.410Z,4.15
2022-10-31T15:03:17.116Z,4.30
2022-10-31T15:05:53.874Z,4.13
2022-10-31T15:08:36.541Z,5.50
2022-10-31T15:11:24.836Z,15.93
2022-10-31T15:14:01.318Z,24.30
2022-10-31T15:16:33.990Z,18.83
2022-10-31T15:19:05.329Z,19.80
2022-10-31T15:21:33.265Z,12.00
2022-10-31T15:24:02.322Z,6.60
2022-10-31T15:26:44.464Z,6.82
2022-10-31T15:29:26.779Z,6.28
2022-10-31T15:32:14.519Z,6.53
2022-10-31T15:34:44.792Z,7.32
2022-10-31T15:37:14.804Z,6.22
2022-10-31T15:39:43.831Z,6.20
2022-10-31T15:42:36.062Z,6.75
2022-10-31T15:45:28.275Z,5.32
2022-10-31T15:47:59.139Z,6.30
2022-10-31T15:50:36.877Z,7.70
2022-10-31T15:53:05.844Z,9.18
2022-10-31T15:55:39.595Z,10.10
2022-10-31T15:58:14.006Z,11.40
2022-10-31T16:00:41.051Z,11.43
2022-10-31T16:03:20.233Z,11.38
2022-10-31T16:05:57.796Z,13.25
2022-10-31T16:08:31.002Z,21.67
2022-10-31T16:11:00.848Z,12.90
2022-10-31T16:13:34.199Z,11.15
2022-10-31T16:16:32.985Z,12.27
2022-10-31T16:18:53.875Z,14.05
2022-10-31T16:21:30.922Z,14.75
2022-10-31T16:24:06.221Z,11.73
2022-10-31T16:26:34.707Z,12.93
2022-10-31T16:29:05.098Z,13.75
2022-10-31T16:31:41.009Z,12.93
2022-10-31T16:34:26.561Z,13.40
2022-10-31T16:36:54.096Z,14.02
2022-10-31T16:39:21.813Z,16.17
2022-10-31T16:41:52.728Z,17.30
2022-10-31T16:44:23.738Z,16.90
2022-10-31T16:47:11.057Z,19.60
2022-10-31T16:49:38.035Z,15.32
2022-10-31T16:52:05.260Z,16.13
2022-10-31T16:54:32.514Z,19.73
2022-10-31T16:57:01.104Z,18.75
2022-10-31T16:59:28.585Z,21.30
2022-10-31T17:01:56.821Z,17.00
2022-10-31T17:04:24.039Z,20.38
2022-10-31T17:06:50.993Z,20.50
2022-10-31T17:09:17.978Z,19.20
2022-10-31T17:11:49.907Z,19.88
2022-10-31T17:14:18.841Z,19.27
2022-10-31T17:16:56.950Z,21.33
2022-10-31T17:19:25.917Z,19.92
2022-10-31T17:21:52.851Z,17.98
2022-10-31T17:24:19.810Z,17.60
2022-10-31T17:26:47.476Z,17.50
2022-10-31T17:29:15.295Z,16.45
2022-10-31T17:31:42.519Z,16.52
2022-10-31T17:34:19.429Z,14.90
2022-10-31T17:36:54.006Z,13.93
2022-10-31T17:39:33.367Z,12.80
2022-10-31T17:42:00.610Z,11.63
2022-10-31T17:44:27.594Z,14.07
2022-10-31T17:46:54.556Z,10.13
2022-10-31T17:49:22.186Z,14.10
2022-10-31T17:51:49.400Z,14.30
2022-10-31T17:54:18.984Z,12.20
2022-10-31T17:56:46.155Z,18.33
2022-10-31T17:59:13.575Z,19.48
2022-10-31T18:01:40.930Z,18.20
2022-10-31T18:04:08.087Z,9.95
2022-10-31T18:06:35.179Z,8.60
2022-10-31T18:09:05.004Z,8.50
2022-10-31T18:11:32.734Z,10.43
2022-10-31T18:13:59.849Z,13.07
2022-10-31T18:16:30.033Z,11.38
2022-10-31T18:19:02.039Z,10.13
2022-10-31T18:21:30.008Z,11.23
2022-10-31T18:24:00.928Z,10.02
2022-10-31T18:26:28.683Z,7.57
2022-10-31T18:28:59.954Z,8.10
2022-10-31T18:31:27.793Z,9.65
2022-10-31T18:33:56.542Z,7.43
2022-10-31T18:36:28.240Z,8.68
2022-10-31T18:38:59.223Z,9.82
2022-10-31T18:41:30.262Z,15.18
2022-10-31T18:44:00.046Z,18.70
2022-10-31T18:46:28.133Z,77.28
2022-10-31T18:48:55.016Z,56.95
2022-10-31T18:51:22.563Z,13.02
2022-10-31T18:53:52.134Z,9.73
2022-10-31T18:56:19.468Z,9.77
2022-10-31T18:58:49.628Z,9.63
2022-10-31T19:01:18.446Z,9.23
2022-10-31T19:03:45.993Z,9.73
2022-10-31T19:06:12.980Z,10.65
2022-10-31T19:08:40.130Z,13.23
2022-10-31T19:11:10.400Z,15.77
2022-10-31T19:13:38.800Z,15.27
2022-10-31T19:16:11.152Z,13.75
2022-10-31T19:18:39.108Z,13.98
2022-10-31T19:21:07.406Z,13.07
2022-10-31T19:23:34.689Z,14.70
2022-10-31T19:26:02.395Z,12.20
2022-10-31T19:28:37.210Z,13.77
2022-10-31T19:31:04.884Z,14.27
2022-10-31T19:33:35.897Z,10.55
2022-10-31T19:36:03.648Z,12.68
2022-10-31T19:38:31.980Z,13.88
2022-10-31T19:41:01.579Z,15.48
2022-10-31T19:43:28.937Z,15.02
2022-10-31T19:46:01.638Z,17.30
2022-10-31T19:48:29.202Z,42.38
2022-10-31T19:51:08.084Z,40.58
2022-10-31T19:53:35.569Z,40.78
2022-10-31T19:56:03.169Z,17.48
2022-10-31T19:58:32.743Z,20.13
2022-10-31T20:03:26.736Z,13.38
2022-10-31T20:05:54.023Z,13.63
2022-10-31T20:08:21.728Z,15.52
2022-10-31T20:11:00.966Z,16.92
2022-10-31T20:13:30.143Z,17.42
2022-10-31T20:16:02.205Z,18.20
2022-10-31T20:18:30.297Z,17.55
2022-10-31T20:21:12.379Z,16.25
2022-10-31T20:23:40.316Z,15.30
2022-10-31T20:26:10.875Z,14.65
2022-10-31T20:28:41.437Z,14.27
2022-10-31T20:31:12.556Z,16.13
2022-10-31T20:33:39.805Z,16.85
2022-10-31T20:36:08.314Z,15.02
2022-10-31T20:38:39.287Z,17.23
2022-10-31T20:41:09.131Z,14.30
2022-10-31T20:43:36.381Z,13.77
2022-10-31T20:46:07.826Z,13.82
2022-10-31T20:48:34.849Z,14.95
2022-10-31T20:51:06.681Z,11.45
2022-10-31T20:56:09.865Z,11.73
2022-10-31T20:58:37.856Z,10.70
2022-10-31T21:01:08.640Z,11.68
2022-10-31T21:03:36.776Z,10.73
2022-10-31T21:06:04.997Z,10.50
2022-10-31T21:08:33.088Z,10.80
2022-10-31T21:11:01.341Z,9.45
2022-10-31T21:13:32.514Z,9.73
2022-10-31T21:16:03.647Z,9.68
2022-10-31T21:18:30.676Z,9.38
2022-10-31T21:20:57.860Z,9.77
2022-10-31T21:23:27.962Z,8.93
2022-10-31T21:25:55.289Z,9.48
2022-10-31T21:28:22.297Z,9.98
2022-10-31T21:30:51.818Z,9.98
2022-10-31T21:33:19.230Z,9.57
2022-10-31T21:35:51.591Z,9.85
2022-10-31T21:38:18.855Z,9.57
2022-10-31T21:40:45.859Z,8.93
2022-10-31T21:43:13.085Z,9.70
2022-10-31T21:45:40.071Z,7.22
2022-10-31T21:48:07.347Z,8.05
2022-10-31T21:50:35.244Z,8.05
2022-10-31T21:53:22.205Z,8.05
2022-10-31T21:55:49.532Z,7.72
2022-10-31T21:58:16.532Z,8.15
2022-10-31T22:00:43.616Z,7.80
2022-10-31T22:03:10.619Z,7.90
2022-10-31T22:05:37.659Z,7.60
2022-10-31T22:08:04.938Z,7.57
2022-10-31T22:10:32.044Z,7.95
2022-10-31T22:12:58.927Z,6.97
2022-10-31T22:15:26.090Z,6.95
2022-10-31T22:17:53.748Z,6.47
2022-10-31T22:20:21.679Z,5.95
2022-10-31T22:22:48.994Z,6.47
2022-10-31T22:25:15.989Z,7.47
2022-10-31T22:27:43.120Z,6.82
2022-10-31T22:30:10.988Z,6.07
2022-10-31T22:32:37.988Z,6.32
2022-10-31T22:35:05.400Z,5.82
2022-10-31T22:37:32.433Z,6.25
2022-10-31T22:39:59.533Z,6.15
2022-10-31T22:42:26.617Z,6.82
2022-10-31T22:44:53.683Z,6.82
2022-10-31T22:47:21.971Z,6.10
2022-10-31T22:49:49.265Z,6.38
2022-10-31T22:52:16.242Z,5.50
2022-10-31T22:54:43.340Z,6.65
2022-10-31T22:57:10.535Z,5.90
2022-10-31T22:59:37.667Z,5.80
2022-10-31T23:02:08.433Z,5.75
2022-10-31T23:04:37.805Z,6.78
2022-10-31T23:07:04.885Z,6.25
2022-10-31T23:09:32.328Z,6.70
2022-10-31T23:12:19.404Z,6.38
2022-10-31T23:14:46.346Z,6.13
2022-10-31T23:17:18.330Z,6.07
2022-10-31T23:22:13.314Z,6.32
2022-10-31T23:24:43.313Z,5.88
2022-10-31T23:27:22.443Z,6.25
2022-10-31T23:29:54.437Z,5.65
2022-10-31T23:34:52.052Z,5.82
2022-10-31T23:37:21.098Z,6.78
2022-10-31T23:39:48.628Z,6.78
2022-10-31T23:42:16.587Z,6.15
2022-10-31T23:44:43.836Z,6.38
2022-10-31T23:47:11.551Z,6.97
2022-10-31T23:49:38.663Z,6.70
2022-10-31T23:52:06.411Z,6.35
2022-10-31T23:54:33.962Z,6.60
2022-10-31T23:57:01.616Z,5.72
2022-10-31T23:59:31.406Z,5.50
